createdAt,value
2019-04-23T00:00:13.977Z,15.33
2019-04-23T00:01:14.702Z,15.17
2019-04-23T00:01:54.367Z,14.47
2019-04-23T00:02:47.716Z,14.73
2019-04-23T00:03:14.014Z,14.37
2019-04-23T00:03:52.062Z,13.60
2019-04-23T00:04:26.487Z,14.37
2019-04-23T00:04:52.852Z,14.40
2019-04-23T00:06:14.675Z,15.00
2019-04-23T00:06:43.847Z,14.67
2019-04-23T00:07:26.954Z,14.93
2019-04-23T00:07:48.658Z,14.57
2019-04-23T00:08:18.936Z,15.00
2019-04-23T00:09:26.051Z,15.57
2019-04-23T00:10:03.504Z,15.40
2019-04-23T00:10:53.755Z,15.03
2019-04-23T00:11:39.830Z,15.87
2019-04-23T00:12:23.841Z,15.10
2019-04-23T00:12:49.397Z,15.27
2019-04-23T00:13:24.763Z,14.77
2019-04-23T00:14:27.260Z,15.20
2019-04-23T00:15:04.938Z,15.97
2019-04-23T00:15:40.268Z,15.90
2019-04-23T00:16:21.988Z,13.97
2019-04-23T00:16:49.306Z,14.83
2019-04-23T00:17:22.667Z,15.80
2019-04-23T00:18:00.474Z,14.87
2019-04-23T00:18:56.339Z,15.40
2019-04-23T00:19:43.230Z,15.00
2019-04-23T00:20:09.550Z,15.30
2019-04-23T00:20:42.967Z,16.80
2019-04-23T00:21:20.219Z,15.60
2019-04-23T00:21:53.528Z,15.97
2019-04-23T00:22:36.695Z,14.93
2019-04-23T00:23:46.276Z,14.63
2019-04-23T00:24:38.438Z,15.50
2019-04-23T00:25:41.544Z,15.30
2019-04-23T00:26:57.612Z,15.70
2019-04-23T00:28:04.573Z,15.37
2019-04-23T00:28:31.410Z,15.00
2019-04-23T00:29:10.634Z,16.57
2019-04-23T00:29:40.190Z,15.27
2019-04-23T00:30:04.038Z,15.03
2019-04-23T00:30:48.217Z,15.63
2019-04-23T00:31:19.551Z,15.80
2019-04-23T00:31:44.572Z,15.93
2019-04-23T00:32:25.153Z,14.97
2019-04-23T00:32:48.125Z,15.03
2019-04-23T00:33:25.099Z,14.80
2019-04-23T00:33:57.435Z,15.23
2019-04-23T00:34:33.298Z,15.47
2019-04-23T00:35:11.363Z,15.70
2019-04-23T00:35:38.872Z,14.90
2019-04-23T00:36:10.661Z,15.13
2019-04-23T00:36:47.667Z,14.67
2019-04-23T00:37:25.706Z,15.97
2019-04-23T00:37:51.423Z,16.30
2019-04-23T00:38:26.530Z,15.17
2019-04-23T00:38:55.803Z,14.27
2019-04-23T00:39:37.593Z,15.17
2019-04-23T00:40:03.131Z,15.30
2019-04-23T00:40:40.636Z,14.53
2019-04-23T00:41:10.971Z,14.97
2019-04-23T00:41:42.677Z,15.43
2019-04-23T00:42:23.883Z,14.40
2019-04-23T00:42:47.922Z,15.87
2019-04-23T00:43:28.526Z,15.40
2019-04-23T00:44:41.444Z,15.40
2019-04-23T00:45:00.237Z,15.20
2019-04-23T00:45:44.211Z,15.10
2019-04-23T00:46:15.482Z,14.90
2019-04-23T00:46:41.943Z,15.13
2019-04-23T00:47:22.380Z,15.30
2019-04-23T00:47:52.665Z,15.93
2019-04-23T00:48:59.188Z,15.73
2019-04-23T00:49:32.433Z,15.97
2019-04-23T00:50:46.035Z,15.60
2019-04-23T00:51:02.268Z,15.43
2019-04-23T00:51:45.968Z,16.27
2019-04-23T00:52:20.458Z,15.87
2019-04-23T00:52:45.955Z,15.07
2019-04-23T00:53:24.435Z,15.17
2019-04-23T00:53:54.696Z,15.13
2019-04-23T00:54:25.526Z,15.70
2019-04-23T00:55:05.478Z,15.30
2019-04-23T00:55:35.224Z,14.60
2019-04-23T00:56:25.238Z,15.83
2019-04-23T00:57:23.153Z,15.47
2019-04-23T00:57:50.454Z,15.63
2019-04-23T00:58:54.640Z,15.47
2019-04-23T00:59:31.049Z,15.30
2019-04-23T01:01:04.364Z,15.87
2019-04-23T01:01:52.860Z,15.73
2019-04-23T01:02:33.059Z,14.87
2019-04-23T01:02:56.766Z,15.30
2019-04-23T01:03:19.540Z,14.77
2019-04-23T01:03:53.163Z,15.03
2019-04-23T01:04:27.480Z,14.87
2019-04-23T01:05:07.153Z,15.00
2019-04-23T01:05:30.985Z,15.10
2019-04-23T01:06:17.727Z,15.33
2019-04-23T01:06:39.017Z,14.90
2019-04-23T01:07:11.112Z,14.83
2019-04-23T01:07:46.943Z,15.33
2019-04-23T01:08:18.595Z,14.20
2019-04-23T01:08:52.337Z,14.87
2019-04-23T01:09:29.421Z,15.00
2019-04-23T01:10:46.547Z,15.87
2019-04-23T01:11:19.017Z,14.33
2019-04-23T01:11:54.180Z,14.90
2019-04-23T01:12:31.825Z,15.83
2019-04-23T01:12:59.789Z,15.60
2019-04-23T01:13:31.756Z,15.00
2019-04-23T01:14:06.698Z,14.83
2019-04-23T01:14:32.500Z,15.07
2019-04-23T01:15:09.963Z,14.77
2019-04-23T01:16:28.293Z,15.63
2019-04-23T01:16:45.989Z,14.70
2019-04-23T01:17:35.140Z,14.53
2019-04-23T01:18:02.227Z,15.33
2019-04-23T01:18:45.942Z,14.97
2019-04-23T01:19:32.044Z,14.07
2019-04-23T01:20:01.424Z,13.60
2019-04-23T01:20:43.966Z,13.80
2019-04-23T01:20:59.035Z,14.03
2019-04-23T01:21:32.657Z,14.40
2019-04-23T01:22:08.481Z,14.77
2019-04-23T01:22:42.188Z,13.77
2019-04-23T01:23:16.049Z,14.93
2019-04-23T01:23:54.804Z,15.20
2019-04-23T01:24:25.874Z,14.17
2019-04-23T01:25:09.779Z,13.77
2019-04-23T01:25:42.681Z,14.63
2019-04-23T01:26:32.375Z,14.47
2019-04-23T01:27:39.606Z,14.37
2019-04-23T01:28:05.867Z,14.83
2019-04-23T01:28:35.592Z,14.23
2019-04-23T01:29:09.194Z,14.10
2019-04-23T01:29:47.063Z,14.27
2019-04-23T01:30:15.886Z,14.97
2019-04-23T01:31:20.082Z,14.47
2019-04-23T01:31:53.162Z,14.03
2019-04-23T01:32:31.465Z,14.20
2019-04-23T01:33:02.962Z,14.70
2019-04-23T01:33:40.641Z,14.73
2019-04-23T01:34:13.033Z,14.80
2019-04-23T01:34:50.009Z,14.50
2019-04-23T01:35:17.763Z,14.30
2019-04-23T01:35:54.407Z,14.73
2019-04-23T01:36:34.707Z,14.80
2019-04-23T01:36:51.698Z,14.60
2019-04-23T01:37:30.303Z,14.93
2019-04-23T01:37:58.002Z,14.30
2019-04-23T01:39:06.349Z,14.70
2019-04-23T01:39:39.705Z,13.73
2019-04-23T01:40:40.745Z,14.70
2019-04-23T01:41:25.228Z,13.83
2019-04-23T01:41:57.418Z,13.40
2019-04-23T01:42:29.077Z,13.67
2019-04-23T01:43:30.102Z,14.17
2019-04-23T01:43:55.314Z,14.10
2019-04-23T01:44:42.552Z,14.57
2019-04-23T01:45:24.151Z,14.27
2019-04-23T01:45:44.390Z,14.37
2019-04-23T01:46:17.959Z,14.00
2019-04-23T01:47:25.267Z,13.83
2019-04-23T01:47:55.145Z,14.37
2019-04-23T01:48:39.165Z,13.93
2019-04-23T01:49:07.198Z,14.53
2019-04-23T01:49:50.210Z,13.67
2019-04-23T01:50:14.163Z,14.53
2019-04-23T01:50:52.090Z,13.73
2019-04-23T01:51:16.705Z,13.77
2019-04-23T01:51:54.610Z,13.80
2019-04-23T01:52:25.008Z,13.67
2019-04-23T01:53:00.735Z,13.00
2019-04-23T01:53:57.421Z,14.13
2019-04-23T01:54:39.435Z,13.93
2019-04-23T01:55:08.327Z,13.77
2019-04-23T01:55:42.128Z,14.73
2019-04-23T01:56:11.133Z,14.43
2019-04-23T01:56:38.560Z,14.83
2019-04-23T01:57:23.152Z,14.93
2019-04-23T01:59:31.865Z,14.50
2019-04-23T02:00:08.548Z,14.03
2019-04-23T02:00:41.056Z,13.90
2019-04-23T02:01:12.947Z,13.87
2019-04-23T02:01:51.592Z,13.63
2019-04-23T02:02:22.083Z,13.70
2019-04-23T02:02:55.598Z,14.17
2019-04-23T02:03:26.924Z,13.80
2019-04-23T02:04:06.394Z,14.07
2019-04-23T02:04:28.615Z,13.37
2019-04-23T02:05:09.299Z,14.53
2019-04-23T02:06:25.140Z,14.00
2019-04-23T02:06:44.814Z,13.97
2019-04-23T02:07:25.846Z,13.23
2019-04-23T02:08:20.917Z,14.77
2019-04-23T02:08:58.474Z,13.50
2019-04-23T02:09:40.275Z,14.33
2019-04-23T02:10:16.810Z,13.63
2019-04-23T02:10:48.765Z,14.57
2019-04-23T02:11:59.201Z,14.33
2019-04-23T02:12:20.710Z,13.70
2019-04-23T02:12:57.022Z,13.93
2019-04-23T02:13:32.331Z,13.97
2019-04-23T02:14:01.711Z,13.77
2019-04-23T02:14:34.793Z,13.70
2019-04-23T02:15:12.128Z,13.40
2019-04-23T02:16:12.079Z,14.37
2019-04-23T02:16:42.163Z,14.60
2019-04-23T02:17:24.959Z,13.33
2019-04-23T02:18:02.112Z,14.37
2019-04-23T02:18:29.574Z,14.23
2019-04-23T02:19:30.431Z,13.70
2019-04-23T02:20:14.130Z,14.10
2019-04-23T02:20:44.359Z,13.87
2019-04-23T02:21:15.355Z,13.53
2019-04-23T02:21:54.631Z,14.00
2019-04-23T02:22:56.256Z,13.93
2019-04-23T02:23:18.319Z,13.53
2019-04-23T02:23:49.391Z,14.57
2019-04-23T02:24:27.788Z,13.40
2019-04-23T02:25:11.130Z,14.77
2019-04-23T02:26:09.055Z,14.00
2019-04-23T02:26:36.838Z,13.77
2019-04-23T02:27:23.023Z,14.03
2019-04-23T02:27:54.421Z,13.73
2019-04-23T02:28:42.761Z,14.57
2019-04-23T02:29:37.841Z,13.50
2019-04-23T02:30:15.659Z,15.67
2019-04-23T02:31:21.662Z,15.97
2019-04-23T02:32:22.009Z,15.90
2019-04-23T02:32:59.397Z,15.37
2019-04-23T02:33:39.868Z,15.57
2019-04-23T02:34:05.976Z,13.43
2019-04-23T02:36:47.477Z,14.23
2019-04-23T02:37:28.606Z,13.57
2019-04-23T02:38:31.833Z,13.87
2019-04-23T02:38:55.948Z,14.03
2019-04-23T02:39:29.341Z,13.97
2019-04-23T02:40:48.840Z,13.63
2019-04-23T02:41:12.891Z,13.00
2019-04-23T02:42:07.350Z,13.13
2019-04-23T02:44:04.990Z,13.10
2019-04-23T02:44:24.068Z,12.50
2019-04-23T02:45:02.635Z,13.20
2019-04-23T02:46:05.622Z,13.37
2019-04-23T02:46:43.243Z,12.67
2019-04-23T02:47:24.728Z,12.60
2019-04-23T02:47:52.955Z,13.00
2019-04-23T02:48:56.314Z,12.70
2019-04-23T02:49:40.590Z,12.93
2019-04-23T02:50:42.626Z,12.87
2019-04-23T02:51:12.894Z,13.50
2019-04-23T02:51:47.389Z,12.47
2019-04-23T02:52:24.095Z,12.63
2019-04-23T02:52:49.019Z,12.63
2019-04-23T02:53:44.804Z,12.63
2019-04-23T02:54:04.023Z,12.47
2019-04-23T02:54:46.418Z,12.30
2019-04-23T02:55:43.677Z,12.77
2019-04-23T02:56:12.300Z,12.87
2019-04-23T02:57:24.831Z,12.60
2019-04-23T02:57:55.505Z,12.73
2019-04-23T02:58:32.779Z,13.13
2019-04-23T02:59:04.262Z,12.50
2019-04-23T02:59:57.791Z,12.90
2019-04-23T03:01:11.427Z,14.00
2019-04-23T03:01:29.867Z,12.23
2019-04-23T03:02:07.612Z,12.97
2019-04-23T03:03:44.905Z,13.13
2019-04-23T03:04:50.715Z,13.60
2019-04-23T03:05:19.899Z,13.70
2019-04-23T03:05:51.117Z,13.43
2019-04-23T03:06:19.061Z,13.23
2019-04-23T03:07:18.748Z,13.10
2019-04-23T03:07:37.213Z,12.97
2019-04-23T03:09:33.947Z,13.33
2019-04-23T03:10:16.014Z,13.20
2019-04-23T03:10:53.421Z,13.27
2019-04-23T03:12:00.723Z,13.10
2019-04-23T03:12:31.423Z,12.50
2019-04-23T03:13:10.216Z,12.23
2019-04-23T03:13:48.461Z,12.60
2019-04-23T03:14:12.123Z,13.30
2019-04-23T03:14:43.673Z,12.67
2019-04-23T03:16:19.931Z,12.77
2019-04-23T03:16:55.158Z,12.33
2019-04-23T03:17:19.018Z,12.40
2019-04-23T03:19:25.492Z,13.07
2019-04-23T03:20:00.809Z,12.83
2019-04-23T03:20:38.388Z,12.37
2019-04-23T03:21:26.935Z,12.80
2019-04-23T03:22:56.182Z,12.50
2019-04-23T03:23:33.106Z,12.30
2019-04-23T03:26:57.037Z,12.63
2019-04-23T03:27:22.899Z,12.37
2019-04-23T03:28:35.780Z,11.67
2019-04-23T03:29:07.666Z,11.73
2019-04-23T03:29:44.376Z,12.33
2019-04-23T03:30:12.899Z,12.17
2019-04-23T03:35:20.337Z,12.40
2019-04-23T03:36:13.645Z,12.77
2019-04-23T03:38:13.413Z,11.63
2019-04-23T03:38:43.064Z,12.20
2019-04-23T03:39:37.396Z,12.70
2019-04-23T03:39:50.437Z,12.23
2019-04-23T03:40:46.477Z,11.50
2019-04-23T03:41:21.377Z,12.10
2019-04-23T03:41:53.900Z,11.30
2019-04-23T03:42:24.089Z,11.93
2019-04-23T03:42:59.005Z,11.30
2019-04-23T03:43:33.282Z,10.83
2019-04-23T03:43:59.348Z,11.40
2019-04-23T03:46:24.405Z,12.37
2019-04-23T03:48:03.233Z,10.83
2019-04-23T03:48:41.960Z,11.77
2019-04-23T03:49:03.748Z,11.37
2019-04-23T03:49:41.235Z,11.57
2019-04-23T03:50:14.867Z,12.37
2019-04-23T03:51:17.228Z,12.43
2019-04-23T03:51:52.225Z,11.80
2019-04-23T03:52:27.712Z,12.07
2019-04-23T03:53:14.077Z,11.63
2019-04-23T03:53:43.206Z,11.83
2019-04-23T03:54:21.812Z,11.67
2019-04-23T03:54:37.996Z,11.27
2019-04-23T03:55:12.602Z,11.83
2019-04-23T03:55:45.430Z,12.23
2019-04-23T03:56:25.457Z,11.07
2019-04-23T03:57:06.085Z,12.20
2019-04-23T03:57:30.901Z,12.17
2019-04-23T03:57:54.283Z,15.17
2019-04-23T03:59:11.413Z,19.50
2019-04-23T04:00:15.663Z,15.33
2019-04-23T04:00:51.531Z,15.17
2019-04-23T04:01:25.262Z,12.77
2019-04-23T04:03:58.911Z,12.10
2019-04-23T04:04:23.086Z,10.60
2019-04-23T04:05:10.737Z,10.80
2019-04-23T04:07:28.410Z,11.47
2019-04-23T04:09:06.142Z,11.60
2019-04-23T04:10:10.784Z,11.67
2019-04-23T04:10:55.425Z,11.40
2019-04-23T04:11:14.607Z,11.27
2019-04-23T04:11:33.503Z,11.73
2019-04-23T04:12:32.839Z,11.27
2019-04-23T04:12:46.018Z,10.97
2019-04-23T04:13:30.721Z,11.33
2019-04-23T04:14:12.160Z,11.43
2019-04-23T04:14:38.240Z,11.43
2019-04-23T04:16:07.296Z,10.70
2019-04-23T04:17:20.155Z,11.53
2019-04-23T04:18:01.863Z,11.90
2019-04-23T04:19:40.178Z,11.43
2019-04-23T04:20:09.727Z,9.80
2019-04-23T04:20:40.510Z,11.17
2019-04-23T04:21:16.060Z,10.97
2019-04-23T04:21:49.312Z,10.50
2019-04-23T04:23:00.035Z,10.50
2019-04-23T04:24:01.319Z,10.67
2019-04-23T04:25:44.856Z,11.37
2019-04-23T04:26:13.215Z,10.87
2019-04-23T04:27:27.024Z,12.30
2019-04-23T04:28:28.774Z,10.67
2019-04-23T04:29:39.700Z,11.37
2019-04-23T04:31:30.907Z,10.67
2019-04-23T04:31:48.511Z,10.13
2019-04-23T04:32:12.040Z,9.67
2019-04-23T04:33:00.585Z,10.40
2019-04-23T04:33:55.453Z,10.67
2019-04-23T04:34:56.192Z,10.23
2019-04-23T04:35:18.620Z,9.90
2019-04-23T04:35:54.418Z,10.40
2019-04-23T04:37:40.835Z,10.57
2019-04-23T04:37:51.398Z,11.07
2019-04-23T04:38:42.045Z,9.37
2019-04-23T04:38:54.370Z,10.47
2019-04-23T04:40:42.449Z,10.17
2019-04-23T04:41:05.703Z,10.67
2019-04-23T04:41:58.806Z,10.93
2019-04-23T04:43:02.229Z,10.03
2019-04-23T04:43:41.550Z,9.87
2019-04-23T04:44:05.203Z,10.00
2019-04-23T04:45:49.826Z,9.93
2019-04-23T04:46:47.778Z,9.93
2019-04-23T04:47:25.821Z,9.33
2019-04-23T04:47:44.979Z,9.53
2019-04-23T04:48:23.204Z,9.50
2019-04-23T04:49:12.096Z,9.47
2019-04-23T04:49:51.058Z,9.97
2019-04-23T04:49:59.591Z,10.03
2019-04-23T04:50:43.532Z,9.63
2019-04-23T04:52:01.034Z,10.07
2019-04-23T04:53:00.699Z,9.60
2019-04-23T04:54:22.828Z,9.33
2019-04-23T04:55:05.258Z,10.03
2019-04-23T04:55:47.180Z,9.40
2019-04-23T04:56:29.428Z,9.40
2019-04-23T04:56:56.562Z,10.00
2019-04-23T04:58:21.170Z,8.77
2019-04-23T04:59:09.294Z,10.07
2019-04-23T04:59:53.954Z,9.80
2019-04-23T05:00:23.552Z,9.53
2019-04-23T05:00:59.654Z,8.90
2019-04-23T05:01:16.475Z,8.80
2019-04-23T05:02:01.616Z,9.07
2019-04-23T05:03:22.083Z,9.77
2019-04-23T05:03:58.214Z,9.73
2019-04-23T05:04:37.434Z,8.57
2019-04-23T05:05:29.494Z,8.87
2019-04-23T05:07:27.525Z,8.90
2019-04-23T05:08:29.077Z,8.50
2019-04-23T05:09:04.919Z,8.90
2019-04-23T05:09:42.052Z,8.47
2019-04-23T05:10:49.770Z,8.63
2019-04-23T05:11:51.877Z,7.67
2019-04-23T05:13:08.114Z,8.03
2019-04-23T05:14:33.617Z,9.03
2019-04-23T05:15:03.152Z,8.27
2019-04-23T05:15:36.965Z,8.30
2019-04-23T05:16:49.040Z,7.60
2019-04-23T05:17:24.425Z,8.30
2019-04-23T05:18:11.628Z,8.63
2019-04-23T05:18:40.039Z,9.07
2019-04-23T05:19:23.498Z,7.80
2019-04-23T05:20:19.892Z,8.87
2019-04-23T05:21:01.900Z,8.77
2019-04-23T05:21:33.306Z,8.23
2019-04-23T05:22:42.770Z,8.77
2019-04-23T05:23:16.526Z,9.13
2019-04-23T05:23:54.373Z,8.60
2019-04-23T05:24:08.555Z,8.43
2019-04-23T05:24:43.253Z,7.70
2019-04-23T05:25:12.614Z,8.30
2019-04-23T05:25:50.001Z,9.07
2019-04-23T05:26:25.056Z,8.10
2019-04-23T05:26:53.214Z,8.70
2019-04-23T05:27:42.730Z,8.13
2019-04-23T05:28:08.061Z,8.57
2019-04-23T05:28:42.520Z,8.67
2019-04-23T05:29:11.491Z,8.17
2019-04-23T05:29:51.181Z,8.53
2019-04-23T05:30:52.146Z,8.40
2019-04-23T05:31:53.440Z,9.10
2019-04-23T05:32:27.266Z,8.37
2019-04-23T05:33:06.243Z,8.50
2019-04-23T05:33:57.174Z,8.10
2019-04-23T05:34:45.091Z,8.57
2019-04-23T05:35:26.173Z,8.20
2019-04-23T05:36:30.790Z,8.67
2019-04-23T05:36:54.222Z,8.27
2019-04-23T05:37:39.367Z,8.20
2019-04-23T05:38:42.902Z,7.70
2019-04-23T05:39:16.917Z,8.30
2019-04-23T05:39:45.521Z,7.50
2019-04-23T05:40:25.210Z,7.40
2019-04-23T05:41:21.969Z,8.20
2019-04-23T05:42:04.402Z,8.07
2019-04-23T05:42:26.364Z,7.87
2019-04-23T05:42:58.507Z,8.47
2019-04-23T05:43:38.545Z,8.00
2019-04-23T05:44:10.466Z,8.00
2019-04-23T05:45:13.024Z,8.23
2019-04-23T05:45:49.650Z,7.63
2019-04-23T05:46:52.257Z,7.70
2019-04-23T05:47:27.367Z,8.60
2019-04-23T05:48:06.763Z,7.93
2019-04-23T05:48:32.049Z,8.40
2019-04-23T05:49:09.386Z,6.80
2019-04-23T05:49:39.741Z,7.73
2019-04-23T05:50:18.710Z,7.80
2019-04-23T05:50:59.175Z,7.87
2019-04-23T05:51:55.166Z,7.73
2019-04-23T05:52:33.722Z,6.87
2019-04-23T05:52:59.795Z,7.30
2019-04-23T05:53:33.465Z,7.53
2019-04-23T05:54:08.453Z,7.60
2019-04-23T05:54:43.236Z,7.53
2019-04-23T05:55:47.625Z,7.57
2019-04-23T05:56:21.299Z,7.10
2019-04-23T05:56:53.940Z,6.90
2019-04-23T05:57:20.219Z,7.00
2019-04-23T05:58:05.183Z,7.47
2019-04-23T05:59:06.199Z,7.53
2019-04-23T05:59:37.583Z,7.70
2019-04-23T06:00:13.232Z,7.33
2019-04-23T06:01:08.710Z,7.57
2019-04-23T06:01:49.329Z,7.50
2019-04-23T06:01:57.284Z,7.07
2019-04-23T06:02:33.651Z,7.67
2019-04-23T06:03:46.824Z,7.10
2019-04-23T06:04:42.716Z,7.37
2019-04-23T06:05:20.032Z,6.90
2019-04-23T06:05:58.551Z,6.63
2019-04-23T06:06:33.124Z,6.77
2019-04-23T06:07:11.456Z,6.90
2019-04-23T06:08:03.467Z,10.27
2019-04-23T06:08:40.091Z,10.60
2019-04-23T06:09:14.193Z,11.43
2019-04-23T06:09:49.915Z,13.03
2019-04-23T06:10:23.225Z,13.03
2019-04-23T06:11:28.161Z,11.03
2019-04-23T06:11:57.037Z,11.00
2019-04-23T06:12:25.184Z,10.57
2019-04-23T06:13:04.750Z,11.47
2019-04-23T06:13:43.071Z,9.23
2019-04-23T06:15:14.606Z,6.70
2019-04-23T06:15:46.788Z,6.40
2019-04-23T06:16:22.166Z,6.77
2019-04-23T06:17:07.962Z,6.87
2019-04-23T06:17:38.029Z,7.37
2019-04-23T06:18:01.800Z,7.80
2019-04-23T06:18:40.531Z,7.20
2019-04-23T06:19:07.993Z,7.00
2019-04-23T06:19:36.245Z,7.23
2019-04-23T06:20:49.273Z,7.03
2019-04-23T06:21:25.215Z,7.20
2019-04-23T06:22:00.397Z,6.70
2019-04-23T06:22:30.107Z,6.30
2019-04-23T06:23:05.469Z,5.97
2019-04-23T06:23:38.176Z,6.13
2019-04-23T06:24:13.169Z,5.73
2019-04-23T06:24:55.246Z,7.33
2019-04-23T06:25:27.394Z,6.43
2019-04-23T06:25:57.661Z,6.63
2019-04-23T06:26:32.896Z,6.60
2019-04-23T06:26:53.522Z,6.13
2019-04-23T06:28:01.589Z,5.90
2019-04-23T06:28:26.971Z,7.07
2019-04-23T06:29:08.939Z,6.53
2019-04-23T06:30:15.043Z,5.97
2019-04-23T06:31:24.789Z,6.07
2019-04-23T06:31:52.619Z,6.43
2019-04-23T06:32:24.256Z,6.40
2019-04-23T06:33:04.348Z,5.57
2019-04-23T06:33:37.682Z,6.07
2019-04-23T06:34:10.842Z,6.90
2019-04-23T06:35:08.797Z,5.77
2019-04-23T06:35:48.781Z,5.80
2019-04-23T06:36:18.998Z,5.63
2019-04-23T06:37:26.721Z,6.27
2019-04-23T06:38:41.334Z,6.03
2019-04-23T06:38:55.825Z,6.20
2019-04-23T06:39:35.990Z,5.93
2019-04-23T06:40:12.699Z,6.20
2019-04-23T06:40:41.962Z,6.00
2019-04-23T06:41:16.971Z,6.57
2019-04-23T06:41:50.019Z,6.33
2019-04-23T06:42:17.986Z,6.50
2019-04-23T06:42:54.823Z,5.87
2019-04-23T06:43:40.796Z,6.37
2019-04-23T06:45:32.057Z,6.37
2019-04-23T06:46:10.002Z,5.77
2019-04-23T06:46:45.991Z,5.93
2019-04-23T06:47:42.901Z,5.97
2019-04-23T06:48:58.401Z,6.37
2019-04-23T06:49:30.662Z,6.50
2019-04-23T06:49:55.723Z,5.40
2019-04-23T06:50:35.179Z,5.20
2019-04-23T06:51:45.657Z,6.23
2019-04-23T06:52:15.201Z,6.20
2019-04-23T06:52:41.505Z,6.73
2019-04-23T06:53:18.089Z,6.37
2019-04-23T06:53:49.820Z,7.33
2019-04-23T06:54:24.451Z,6.23
2019-04-23T06:56:03.944Z,8.03
2019-04-23T06:56:49.366Z,6.57
2019-04-23T06:57:19.134Z,5.90
2019-04-23T06:57:41.116Z,6.73
2019-04-23T06:58:26.014Z,6.27
2019-04-23T06:58:53.014Z,6.00
2019-04-23T06:59:29.316Z,7.45
2019-04-23T06:59:54.558Z,6.47
2019-04-23T07:00:39.420Z,6.10
2019-04-23T07:01:04.933Z,5.57
2019-04-23T07:01:46.350Z,5.63
2019-04-23T07:02:51.602Z,6.17
2019-04-23T07:03:25.114Z,5.50
2019-04-23T07:03:58.249Z,6.00
2019-04-23T07:05:06.503Z,6.13
2019-04-23T07:06:05.025Z,5.07
2019-04-23T07:07:42.946Z,6.27
2019-04-23T07:08:08.327Z,5.30
2019-04-23T07:08:56.286Z,6.60
2019-04-23T07:09:43.884Z,6.47
2019-04-23T07:10:22.007Z,5.87
2019-04-23T07:11:00.646Z,5.50
2019-04-23T07:11:30.349Z,6.72
2019-04-23T07:11:55.541Z,5.90
2019-04-23T07:12:35.197Z,5.97
2019-04-23T07:13:08.819Z,6.33
2019-04-23T07:13:46.629Z,5.37
2019-04-23T07:14:02.476Z,4.92
2019-04-23T07:15:30.946Z,6.03
2019-04-23T07:15:51.993Z,7.03
2019-04-23T07:16:24.059Z,6.13
2019-04-23T07:16:52.884Z,5.60
2019-04-23T07:17:24.900Z,5.90
2019-04-23T07:18:03.970Z,6.78
2019-04-23T07:18:34.589Z,5.93
2019-04-23T07:19:54.656Z,6.90
2019-04-23T07:20:18.100Z,6.13
2019-04-23T07:20:50.523Z,5.83
2019-04-23T07:21:58.769Z,6.03
2019-04-23T07:23:04.889Z,6.67
2019-04-23T07:24:08.498Z,6.67
2019-04-23T07:24:45.830Z,5.30
2019-04-23T07:25:56.084Z,6.03
2019-04-23T07:26:48.168Z,5.60
2019-04-23T07:27:30.329Z,6.00
2019-04-23T07:28:07.138Z,6.00
2019-04-23T07:29:10.669Z,7.03
2019-04-23T07:29:41.754Z,5.03
2019-04-23T07:30:50.048Z,5.90
2019-04-23T07:31:58.998Z,5.35
2019-04-23T07:32:44.716Z,5.37
2019-04-23T07:33:04.125Z,5.23
2019-04-23T07:33:38.254Z,5.20
2019-04-23T07:34:05.172Z,5.80
2019-04-23T07:34:49.524Z,6.60
2019-04-23T07:35:13.250Z,4.80
2019-04-23T07:35:51.782Z,6.15
2019-04-23T07:36:32.386Z,5.67
2019-04-23T07:36:54.655Z,5.57
2019-04-23T07:38:20.668Z,6.83
2019-04-23T07:38:56.990Z,5.30
2019-04-23T07:39:27.289Z,5.73
2019-04-23T07:40:19.627Z,6.73
2019-04-23T07:40:31.225Z,8.40
2019-04-23T07:41:23.405Z,6.43
2019-04-23T07:42:37.265Z,5.30
2019-04-23T07:43:17.807Z,5.40
2019-04-23T07:44:08.407Z,5.70
2019-04-23T07:44:56.403Z,13.03
2019-04-23T07:45:26.079Z,14.53
2019-04-23T07:46:08.189Z,16.20
2019-04-23T07:47:15.704Z,10.93
2019-04-23T07:48:06.541Z,8.73
2019-04-23T07:48:32.060Z,7.05
2019-04-23T07:49:11.783Z,8.70
2019-04-23T07:49:49.086Z,9.23
2019-04-23T07:50:23.438Z,10.32
2019-04-23T07:50:49.461Z,10.40
2019-04-23T07:51:19.804Z,9.65
2019-04-23T07:52:04.813Z,11.60
2019-04-23T07:52:33.463Z,9.20
2019-04-23T07:53:05.560Z,9.75
2019-04-23T07:53:56.390Z,8.55
2019-04-23T07:54:51.308Z,7.50
2019-04-23T07:55:20.108Z,8.10
2019-04-23T07:56:25.868Z,9.17
2019-04-23T07:57:07.576Z,10.40
2019-04-23T07:57:40.087Z,12.58
2019-04-23T07:58:06.600Z,18.40
2019-04-23T07:58:31.919Z,17.35
2019-04-23T07:59:13.873Z,19.37
2019-04-23T07:59:43.960Z,16.02
2019-04-23T08:00:24.101Z,14.63
2019-04-23T08:00:45.114Z,15.93
2019-04-23T08:01:25.201Z,11.95
2019-04-23T08:01:59.724Z,10.90
2019-04-23T08:02:26.139Z,8.50
2019-04-23T08:03:08.472Z,6.78
2019-04-23T08:03:33.067Z,7.40
2019-04-23T08:04:01.847Z,6.80
2019-04-23T08:05:04.775Z,7.30
2019-04-23T08:05:26.797Z,11.50
2019-04-23T08:05:44.947Z,9.38
2019-04-23T08:06:16.530Z,11.18
2019-04-23T08:06:55.906Z,11.50
2019-04-23T08:07:28.233Z,11.43
2019-04-23T08:08:33.376Z,12.98
2019-04-23T08:09:02.312Z,13.13
2019-04-23T08:09:43.425Z,10.80
2019-04-23T08:10:09.005Z,9.23
2019-04-23T08:11:14.340Z,8.78
2019-04-23T08:12:12.960Z,9.13
2019-04-23T08:12:43.758Z,10.20
2019-04-23T08:13:15.871Z,9.50
2019-04-23T08:14:03.129Z,9.50
2019-04-23T08:14:22.346Z,9.60
2019-04-23T08:14:55.377Z,8.23
2019-04-23T08:15:22.979Z,9.23
2019-04-23T08:15:57.231Z,15.70
2019-04-23T08:16:38.341Z,16.40
2019-04-23T08:16:58.181Z,11.18
2019-04-23T08:17:34.646Z,11.18
2019-04-23T08:18:15.935Z,12.50
2019-04-23T08:18:45.350Z,11.85
2019-04-23T08:19:14.222Z,12.93
2019-04-23T08:20:23.317Z,11.97
2019-04-23T08:20:55.613Z,12.28
2019-04-23T08:21:27.586Z,12.58
2019-04-23T08:22:13.877Z,10.27
2019-04-23T08:22:37.356Z,10.10
2019-04-23T08:23:16.659Z,9.47
2019-04-23T08:23:55.574Z,10.93
2019-04-23T08:24:52.176Z,9.18
2019-04-23T08:25:37.408Z,10.45
2019-04-23T08:26:26.739Z,11.38
2019-04-23T08:26:53.526Z,8.37
2019-04-23T08:27:27.877Z,8.10
2019-04-23T08:28:10.518Z,8.25
2019-04-23T08:28:59.144Z,14.63
2019-04-23T08:29:22.105Z,13.13
2019-04-23T08:29:47.764Z,9.50
2019-04-23T08:30:24.060Z,9.98
2019-04-23T08:30:58.994Z,9.63
2019-04-23T08:31:40.279Z,9.73
2019-04-23T08:32:12.324Z,10.63
2019-04-23T08:32:36.918Z,8.75
2019-04-23T08:33:12.175Z,8.70
2019-04-23T08:33:49.984Z,11.18
2019-04-23T08:35:23.280Z,8.85
2019-04-23T08:36:09.443Z,8.85
2019-04-23T08:36:37.502Z,9.85
2019-04-23T08:37:09.311Z,9.25
2019-04-23T08:37:54.291Z,10.88
2019-04-23T08:38:29.523Z,8.88
2019-04-23T08:38:44.418Z,9.23
2019-04-23T08:39:21.533Z,9.05
2019-04-23T08:39:46.975Z,8.90
2019-04-23T08:40:54.131Z,8.78
2019-04-23T08:41:12.259Z,9.58
2019-04-23T08:41:33.448Z,10.15
2019-04-23T08:42:32.866Z,8.95
2019-04-23T08:43:36.798Z,8.90
2019-04-23T08:44:08.877Z,8.50
2019-04-23T08:44:46.156Z,8.33
2019-04-23T08:46:16.505Z,9.23
2019-04-23T08:47:31.946Z,7.50
2019-04-23T08:48:27.877Z,8.73
2019-04-23T08:48:50.292Z,10.17
2019-04-23T08:49:50.642Z,9.53
2019-04-23T08:50:27.722Z,9.98
2019-04-23T08:51:07.534Z,10.48
2019-04-23T08:52:11.786Z,9.65
2019-04-23T08:52:39.568Z,9.90
2019-04-23T08:53:32.792Z,9.23
2019-04-23T08:53:40.970Z,9.65
2019-04-23T08:54:25.329Z,9.90
2019-04-23T08:54:52.033Z,10.25
2019-04-23T08:55:32.526Z,10.32
2019-04-23T08:56:08.736Z,8.73
2019-04-23T08:56:35.075Z,15.88
2019-04-23T08:57:31.925Z,12.88
2019-04-23T08:58:14.140Z,16.60
2019-04-23T08:58:41.569Z,14.30
2019-04-23T08:59:24.934Z,13.53
2019-04-23T09:00:23.098Z,13.43
2019-04-23T09:01:42.767Z,13.25
2019-04-23T09:02:56.701Z,12.53
2019-04-23T09:03:13.127Z,11.57
2019-04-23T09:03:56.394Z,12.13
2019-04-23T09:04:18.541Z,10.37
2019-04-23T09:04:55.333Z,11.55
2019-04-23T09:05:23.533Z,11.95
2019-04-23T09:06:47.933Z,12.18
2019-04-23T09:07:15.713Z,12.53
2019-04-23T09:08:37.464Z,10.98
2019-04-23T09:09:20.179Z,10.65
2019-04-23T09:09:50.896Z,9.68
2019-04-23T09:10:23.000Z,9.83
2019-04-23T09:10:56.876Z,11.05
2019-04-23T09:12:21.989Z,9.70
2019-04-23T09:12:35.096Z,8.88
2019-04-23T09:13:26.152Z,10.23
2019-04-23T09:13:54.776Z,9.83
2019-04-23T09:14:28.273Z,10.58
2019-04-23T09:14:44.987Z,12.03
2019-04-23T09:15:23.067Z,11.20
2019-04-23T09:15:56.608Z,9.60
2019-04-23T09:16:32.601Z,9.53
2019-04-23T09:16:57.706Z,12.20
2019-04-23T09:17:37.551Z,13.58
2019-04-23T09:18:52.993Z,12.20
2019-04-23T09:19:14.716Z,11.80
2019-04-23T09:20:21.883Z,9.90
2019-04-23T09:20:43.246Z,9.75
2019-04-23T09:21:24.796Z,9.68
2019-04-23T09:22:02.136Z,9.55